createdAt,value
2022-11-03T00:01:42.131Z,9.73
2022-11-03T00:06:47.572Z,11.77
2022-11-03T00:11:51.421Z,14.40
2022-11-03T00:21:59.736Z,14.80
2022-11-03T00:27:02.010Z,12.55
2022-11-03T00:32:05.796Z,10.02
2022-11-03T00:37:09.613Z,9.80
2022-11-03T00:47:14.088Z,10.07
2022-11-03T00:52:16.290Z,9.95
2022-11-03T00:57:19.433Z,10.20
2022-11-03T01:02:21.659Z,10.48
2022-11-03T01:07:24.171Z,9.73
2022-11-03T01:12:26.458Z,10.27
2022-11-03T01:17:29.702Z,11.95
2022-11-03T01:22:34.233Z,10.60
2022-11-03T01:27:36.518Z,9.85
2022-11-03T01:32:38.727Z,10.02
2022-11-03T01:37:44.077Z,9.75
2022-11-03T01:42:46.725Z,9.15
2022-11-03T01:47:49.116Z,9.57
2022-11-03T01:52:56.328Z,8.30
2022-11-03T01:58:07.601Z,8.60
2022-11-03T02:03:10.317Z,8.60
2022-11-03T02:08:20.005Z,8.57
2022-11-03T02:13:26.025Z,8.07
2022-11-03T02:18:30.427Z,8.52
2022-11-03T02:23:40.023Z,8.23
2022-11-03T02:28:42.953Z,7.30
2022-11-03T02:33:54.088Z,6.83
2022-11-03T02:39:00.416Z,6.82
2022-11-03T02:44:05.164Z,6.15
2022-11-03T02:49:07.916Z,7.13
2022-11-03T02:54:39.959Z,6.20
2022-11-03T02:59:54.487Z,6.55
2022-11-03T03:04:57.988Z,6.85
2022-11-03T03:15:08.771Z,6.32
2022-11-03T03:20:25.477Z,6.65
2022-11-03T03:25:42.008Z,6.63
2022-11-03T03:30:45.632Z,6.68
2022-11-03T03:40:55.462Z,7.13
2022-11-03T03:46:01.685Z,6.93
2022-11-03T03:51:04.765Z,7.53
2022-11-03T03:56:07.284Z,7.15
2022-11-03T04:01:12.977Z,7.00
2022-11-03T04:06:15.265Z,7.10
2022-11-03T04:11:36.199Z,6.85
2022-11-03T04:16:57.361Z,6.30
2022-11-03T04:22:18.831Z,6.70
2022-11-03T04:27:31.359Z,7.95
2022-11-03T04:32:34.693Z,6.93
2022-11-03T04:37:36.863Z,7.55
2022-11-03T04:42:39.506Z,7.22
2022-11-03T04:47:41.805Z,8.35
2022-11-03T04:52:44.096Z,8.32
2022-11-03T04:57:46.605Z,8.80
2022-11-03T05:02:54.850Z,9.65
2022-11-03T05:07:58.752Z,10.27
2022-11-03T05:13:01.536Z,10.65
2022-11-03T05:18:28.070Z,10.80
2022-11-03T05:23:36.758Z,11.30
2022-11-03T05:28:43.666Z,10.80
2022-11-03T05:33:47.803Z,12.13
2022-11-03T05:38:54.881Z,12.15
2022-11-03T05:44:03.395Z,10.93
2022-11-03T05:49:07.202Z,11.75
2022-11-03T05:59:35.468Z,11.88
2022-11-03T06:04:40.426Z,11.93
2022-11-03T06:09:44.181Z,12.27
2022-11-03T06:14:46.878Z,12.25
2022-11-03T06:19:51.233Z,10.73
2022-11-03T06:25:00.548Z,11.77
2022-11-03T06:30:21.001Z,12.15
2022-11-03T06:35:24.425Z,11.13
2022-11-03T06:40:34.116Z,9.82
2022-11-03T06:45:36.386Z,10.65
2022-11-03T06:50:43.811Z,9.65
2022-11-03T06:55:48.758Z,10.10
2022-11-03T07:00:55.705Z,9.80
2022-11-03T07:06:15.883Z,8.45
2022-11-03T07:11:30.412Z,9.32
2022-11-03T07:16:38.115Z,9.05
2022-11-03T07:21:49.795Z,8.82
2022-11-03T07:27:02.897Z,8.35
2022-11-03T07:32:25.307Z,7.93
2022-11-03T07:37:27.611Z,7.93
2022-11-03T07:42:33.279Z,7.43
2022-11-03T07:47:36.949Z,8.43
2022-11-03T07:52:39.174Z,7.68
2022-11-03T07:57:42.570Z,7.75
2022-11-03T08:02:59.555Z,8.45
2022-11-03T08:13:24.099Z,10.07
2022-11-03T08:18:27.616Z,8.20
2022-11-03T08:23:30.491Z,8.15
2022-11-03T08:33:40.799Z,7.15
2022-11-03T08:38:43.271Z,6.97
2022-11-03T08:43:45.478Z,7.43
2022-11-03T08:48:47.873Z,7.47
2022-11-03T08:53:53.971Z,8.02
2022-11-03T08:58:56.327Z,6.00
2022-11-03T09:03:58.644Z,6.78
2022-11-03T09:14:25.335Z,5.55
2022-11-03T09:19:27.589Z,5.60
2022-11-03T09:24:30.605Z,5.15
2022-11-03T09:29:58.491Z,5.32
2022-11-03T09:34:55.458Z,5.30
2022-11-03T09:39:58.911Z,5.75
2022-11-03T09:45:02.021Z,5.40
2022-11-03T09:55:14.001Z,5.80
2022-11-03T10:00:21.333Z,5.32
2022-11-03T10:05:26.849Z,5.30
2022-11-03T10:10:29.673Z,4.55
2022-11-03T10:15:31.879Z,4.78
2022-11-03T10:20:34.165Z,5.05
2022-11-03T10:25:41.321Z,5.20
2022-11-03T10:36:16.083Z,5.03
2022-11-03T10:41:40.179Z,4.70
2022-11-03T10:47:02.934Z,5.32
2022-11-03T10:52:20.682Z,4.40
2022-11-03T10:57:23.382Z,3.60
2022-11-03T11:02:31.507Z,4.37
2022-11-03T11:07:36.582Z,4.25
2022-11-03T11:12:42.662Z,4.47
2022-11-03T11:17:47.485Z,4.65
2022-11-03T11:22:50.709Z,4.28
2022-11-03T11:27:58.781Z,4.47
2022-11-03T11:33:13.488Z,5.07
2022-11-03T11:38:52.326Z,4.70
2022-11-03T11:43:54.870Z,3.42
2022-11-03T11:48:57.106Z,3.03
2022-11-03T11:54:17.038Z,3.58
2022-11-03T11:59:25.832Z,4.30
2022-11-03T12:04:31.548Z,4.85
2022-11-03T12:09:34.401Z,3.55
2022-11-03T12:14:37.427Z,2.83
2022-11-03T12:19:50.545Z,3.03
2022-11-03T12:24:57.484Z,3.25
2022-11-03T12:30:02.377Z,3.50
2022-11-03T12:35:06.380Z,3.00
2022-11-03T12:40:12.809Z,3.28
2022-11-03T12:45:16.144Z,3.70
2022-11-03T12:50:18.525Z,3.40
2022-11-03T12:55:20.897Z,3.05
2022-11-03T13:00:23.966Z,2.95
2022-11-03T13:05:26.453Z,2.97
2022-11-03T13:10:28.655Z,2.97
2022-11-03T13:15:31.124Z,3.55
2022-11-03T13:20:34.033Z,3.72
2022-11-03T13:25:36.699Z,3.45
2022-11-03T13:30:40.453Z,4.10
2022-11-03T13:35:43.021Z,3.63
2022-11-03T13:41:07.101Z,3.97
2022-11-03T13:46:07.711Z,3.05
2022-11-03T13:51:12.207Z,3.40
2022-11-03T13:56:20.757Z,3.47
2022-11-03T14:01:24.929Z,3.50
2022-11-03T14:06:27.345Z,4.10
2022-11-03T14:11:48.035Z,3.78
2022-11-03T14:16:50.628Z,4.75
2022-11-03T14:21:54.488Z,4.40
2022-11-03T14:26:56.773Z,3.95
2022-11-03T14:31:59.397Z,3.80
2022-11-03T14:37:02.488Z,4.35
2022-11-03T14:42:11.753Z,4.80
2022-11-03T14:47:17.927Z,4.80
2022-11-03T14:52:22.486Z,4.15
2022-11-03T14:57:24.713Z,4.60
2022-11-03T15:02:27.175Z,3.90
2022-11-03T15:07:33.595Z,5.03
2022-11-03T15:12:35.930Z,6.38
2022-11-03T15:17:40.140Z,8.15
2022-11-03T15:28:09.208Z,6.97
2022-11-03T15:38:15.560Z,8.93
2022-11-03T15:43:18.305Z,6.13
2022-11-03T15:48:21.098Z,7.53
2022-11-03T15:53:24.531Z,7.57
2022-11-03T15:58:26.924Z,9.40
2022-11-03T16:03:29.953Z,8.27
2022-11-03T16:08:33.618Z,8.90
2022-11-03T16:13:35.992Z,8.95
2022-11-03T16:18:38.846Z,9.40
2022-11-03T16:23:41.095Z,8.38
2022-11-03T16:28:43.482Z,9.48
2022-11-03T16:33:47.745Z,7.82
2022-11-03T16:38:50.049Z,8.88
2022-11-03T16:43:52.394Z,13.23
2022-11-03T16:49:42.916Z,11.40
2022-11-03T16:54:45.489Z,11.10
2022-11-03T16:59:53.065Z,11.30
2022-11-03T17:04:58.789Z,10.82
2022-11-03T17:15:54.725Z,27.00
2022-11-03T17:20:56.988Z,34.10
2022-11-03T17:26:00.254Z,17.77
2022-11-03T17:31:02.645Z,21.65
2022-11-03T17:36:05.280Z,13.38
2022-11-03T17:41:19.017Z,12.95
2022-11-03T17:46:23.180Z,12.50
2022-11-03T17:51:25.701Z,11.73
2022-11-03T17:56:30.737Z,12.30
2022-11-03T18:01:34.639Z,14.25
2022-11-03T18:06:37.401Z,12.93
2022-11-03T18:12:40.357Z,11.93
2022-11-03T18:18:04.883Z,13.52
2022-11-03T18:23:17.242Z,13.20
2022-11-03T18:28:23.876Z,13.80
2022-11-03T18:33:29.681Z,15.07
2022-11-03T18:38:32.464Z,14.43
2022-11-03T18:43:35.444Z,15.57
2022-11-03T18:48:41.963Z,15.25
2022-11-03T18:53:56.351Z,14.27
2022-11-03T18:59:01.249Z,14.43
2022-11-03T19:04:04.788Z,15.23
2022-11-03T19:09:10.320Z,15.00
2022-11-03T19:14:23.468Z,15.30
2022-11-03T19:19:29.376Z,16.15
2022-11-03T19:24:31.620Z,15.48
2022-11-03T19:29:37.837Z,15.98
2022-11-03T19:34:41.128Z,16.98
2022-11-03T19:39:43.716Z,15.75
2022-11-03T19:49:50.531Z,16.20
2022-11-03T19:54:53.431Z,16.65
2022-11-03T19:59:59.265Z,17.92
2022-11-03T20:05:02.747Z,16.88
2022-11-03T20:10:14.347Z,17.38
2022-11-03T20:15:21.735Z,15.95
2022-11-03T20:20:28.598Z,16.52
2022-11-03T20:25:35.143Z,17.83
2022-11-03T20:30:37.503Z,16.52
2022-11-03T20:35:40.574Z,12.20
2022-11-03T20:40:43.200Z,17.60
2022-11-03T20:45:45.640Z,15.55
2022-11-03T20:50:48.383Z,17.13
2022-11-03T20:55:51.047Z,17.20
2022-11-03T21:00:53.441Z,14.80
2022-11-03T21:05:56.921Z,17.02
2022-11-03T21:11:27.407Z,17.02
2022-11-03T21:16:50.128Z,16.73
2022-11-03T21:21:52.387Z,16.50
2022-11-03T21:26:54.889Z,16.17
2022-11-03T21:31:57.452Z,17.03
2022-11-03T21:36:59.752Z,16.63
2022-11-03T21:42:20.985Z,16.88
2022-11-03T21:47:23.492Z,15.63
2022-11-03T21:52:32.175Z,19.77
2022-11-03T21:57:34.757Z,17.52
2022-11-03T22:02:37.233Z,16.45
2022-11-03T22:07:40.226Z,16.77
2022-11-03T22:12:42.737Z,17.67
2022-11-03T22:17:46.278Z,17.27
2022-11-03T22:28:14.399Z,18.02
2022-11-03T22:33:19.781Z,17.48
2022-11-03T22:38:42.076Z,17.17
2022-11-03T22:44:04.605Z,17.08
2022-11-03T22:49:07.931Z,16.13
2022-11-03T22:54:10.251Z,16.45
2022-11-03T22:59:12.954Z,17.13
2022-11-03T23:04:15.861Z,17.63
2022-11-03T23:09:19.358Z,16.67
2022-11-03T23:14:23.101Z,17.45
2022-11-03T23:19:44.370Z,16.40
2022-11-03T23:25:02.033Z,16.95
2022-11-03T23:30:06.335Z,17.42
2022-11-03T23:35:09.145Z,19.58
2022-11-03T23:40:15.898Z,16.73
2022-11-03T23:45:39.789Z,17.33
2022-11-03T23:50:43.705Z,16.85
2022-11-03T23:56:04.826Z,17.20
